Sovereign — 9HUE9 — position and weather

sailwx.info

Track history (hours):
 
Tides and Currents Weather Stations Pressure Air Temp Water Temp Dewpoint Dewpoint Depression Visibility Wind Speed Wind Dir Waves Ship Positions

Sovereign

Last reported at 2017-Jun-26 19:01 UTC. Time now 2017-Jun-26 19:06 UTC.
Position N 40°37' E 013°56'.

Length 269 m; draft 7.8 m.

Type: Passenger vessel. MMSI: 249539000.

Date/timePositionNaut miles runAvg speedWind from/ knotsBaromVisibWave heightAir tempDewpointWater temp
2017-Jun-26 19:01N 40°37' E 013°56'815.3
2017-Jun-26 18:31N 40°40' E 014°05'713.6
2017-Jun-26 18:01N 40°45' E 014°11'612.4
2017-Jun-26 17:30N 40°49' E 014°17'1 2.7
2017-Jun-26 16:58N 40°50' E 014°15'0 0.0
2017-Jun-26 16:28N 40°50' E 014°15'0 0.0
2017-Jun-26 15:58N 40°50' E 014°15'0 0.0
2017-Jun-26 15:28N 40°50' E 014°15'0 0.0
2017-Jun-26 14:58N 40°50' E 014°15'0 0.0
2017-Jun-26 14:28N 40°50' E 014°15'0 0.0
2017-Jun-26 13:28N 40°50' E 014°15'0 0.0
2017-Jun-26 12:52N 40°50' E 014°15'0 0.0
2017-Jun-26 12:28N 40°50' E 014°15'0 0.0
2017-Jun-26 11:58N 40°50' E 014°15'0 0.0
2017-Jun-26 11:28N 40°50' E 014°15'0 0.0
2017-Jun-26 10:58N 40°50' E 014°15'0 0.0
2017-Jun-26 10:28N 40°50' E 014°15'0 0.0
2017-Jun-26 09:58N 40°50' E 014°15'0 0.0
2017-Jun-26 09:28N 40°50' E 014°15'0 0.0
2017-Jun-26 08:52N 40°50' E 014°15'0 0.0
2017-Jun-26 08:28N 40°50' E 014°15'0 0.0
2017-Jun-26 07:52N 40°50' E 014°15'0 0.0
2017-Jun-26 07:25N 40°50' E 014°15'0 0.0
2017-Jun-26 06:58N 40°50' E 014°15'0 0.7
2017-Jun-26 06:30N 40°50' E 014°16'2 3.4
2017-Jun-26 06:00N 40°49' E 014°17'712.5
2017-Jun-26 05:28N 40°44' E 014°10'613.0
2017-Jun-26 05:00N 40°40' E 014°05'714.1
2017-Jun-26 04:30N 40°36' E 013°57'714.1
2017-Jun-26 04:00N 40°32' E 013°50'713.3
2017-Jun-26 03:30N 40°30' E 013°41'714.1
2017-Jun-26 03:00N 40°31' E 013°32'714.1
2017-Jun-26 02:30N 40°33' E 013°23'714.0
2017-Jun-26 02:00N 40°34' E 013°14'713.9
2017-Jun-26 01:30N 40°36' E 013°05'713.8
2017-Jun-26 00:58N 40°38' E 012°56'713.9
2017-Jun-26 00:29N 40°39' E 012°47'1213.7
2017-Jun-25 23:36N 40°42' E 012°32'113.8
2017-Jun-25 23:30N 40°43' E 012°30'1013.6
2017-Jun-25 22:45N 40°45' E 012°17'313.5
2017-Jun-25 22:30N 40°46' E 012°13'713.4
2017-Jun-25 22:00N 40°48' E 012°04'713.5
2017-Jun-25 21:31N 40°50' E 011°56'1413.6
2017-Jun-25 20:28N 40°54' E 011°38'713.8
2017-Jun-25 20:00N 40°56' E 011°29'1113.9
2017-Jun-25 19:13N 40°59' E 011°16'1713.9
2017-Jun-25 17:58N 41°03' E 010°53'613.7
2017-Jun-25 17:30N 41°05' E 010°45'713.8
2017-Jun-25 17:00N 41°06' E 010°36'2914.2
2017-Jun-25 14:57N 41°14' E 009°59'1114.8
2017-Jun-25 14:13N 41°17' E 009°45'11315.4
2017-Jun-25 06:51N 41°20' E 007°14'14316.5
2017-Jun-24 22:12N 41°18' E 004°04'516.2
2017-Jun-24 21:54N 41°18' E 003°58'616.3
2017-Jun-24 21:30N 41°17' E 003°49'816.7
2017-Jun-24 21:00N 41°17' E 003°38'816.3
2017-Jun-24 20:30N 41°17' E 003°27'816.2
2017-Jun-24 20:00N 41°17' E 003°16'816.3
2017-Jun-24 19:30N 41°17' E 003°05'816.2
2017-Jun-24 19:00N 41°17' E 002°55'816.2
2017-Jun-24 18:30N 41°17' E 002°44'816.3
2017-Jun-24 18:01N 41°16' E 002°33'816.8
2017-Jun-24 17:30N 41°16' E 002°22'816.4
2017-Jun-24 17:00N 41°17' E 002°11'5 9.2
2017-Jun-24 16:29N 41°21' E 002°10'0 0.4
2017-Jun-24 15:46N 41°22' E 002°11'0 0.0
2017-Jun-24 15:13N 41°22' E 002°11'0 0.0
2017-Jun-24 14:52N 41°22' E 002°11'0 0.0
2017-Jun-24 13:52N 41°22' E 002°11'0 0.0
2017-Jun-24 13:28N 41°22' E 002°11'0 0.0
2017-Jun-24 12:58N 41°22' E 002°11'0 0.0
2017-Jun-24 12:28N 41°22' E 002°11'0 0.0
2017-Jun-24 11:58N 41°22' E 002°11'0 0.0
2017-Jun-24 11:28N 41°22' E 002°11'0 0.0
2017-Jun-24 10:58N 41°22' E 002°11'0 0.0
2017-Jun-24 10:28N 41°22' E 002°11'0 0.0
2017-Jun-24 09:58N 41°22' E 002°11'0 0.0
2017-Jun-24 09:28N 41°22' E 002°11'0 0.0
2017-Jun-24 08:58N 41°22' E 002°11'0 0.0
2017-Jun-24 08:22N 41°22' E 002°11'0 0.0
2017-Jun-24 07:43N 41°22' E 002°11'0 0.0
2017-Jun-24 07:25N 41°22' E 002°11'0 0.0
2017-Jun-24 06:58N 41°22' E 002°11'0 0.1
2017-Jun-24 06:30N 41°22' E 002°11'5 7.4
2017-Jun-24 05:50N 41°17' E 002°11'412.7
2017-Jun-24 05:30N 41°16' E 002°17'612.7
2017-Jun-24 05:00N 41°16' E 002°25'714.2
2017-Jun-24 04:30N 41°16' E 002°35'713.7
2017-Jun-24 04:00N 41°19' E 002°43'713.8
2017-Jun-24 03:30N 41°23' E 002°51'713.5
2017-Jun-24 03:00N 41°27' E 002°58'713.7
2017-Jun-24 02:30N 41°31' E 003°05'714.0
2017-Jun-24 02:00N 41°35' E 003°13'713.9
2017-Jun-24 01:30N 41°39' E 003°21'714.0
2017-Jun-24 01:00N 41°43' E 003°28'713.8
2017-Jun-24 00:30N 41°47' E 003°36'815.2
2017-Jun-24 00:00N 41°51' E 003°44'916.3
2017-Jun-23 23:28N 41°57' E 003°54'716.1
2017-Jun-23 23:00N 42°01' E 004°02'815.9
2017-Jun-23 22:30N 42°05' E 004°11'815.6
2017-Jun-23 22:00N 42°10' E 004°19'815.4
2017-Jun-23 21:30N 42°14' E 004°28'815.1
2017-Jun-23 20:59N 42°19' E 004°37'3415.3
2017-Jun-23 18:48N 42°38' E 005°13'4214.8
2017-Jun-23 15:59N 43°04' E 005°58'3 6.4
2017-Jun-23 15:30N 43°07' E 005°56'0 0.2
2017-Jun-23 15:00N 43°07' E 005°56'0 0.0
2017-Jun-23 14:00N 43°07' E 005°56'0 0.0
2017-Jun-23 13:30N 43°07' E 005°56'0 0.0
2017-Jun-23 13:00N 43°07' E 005°56'0 0.0
2017-Jun-23 12:30N 43°07' E 005°56'0 0.0
2017-Jun-23 12:00N 43°07' E 005°56'0 0.0
2017-Jun-23 11:30N 43°07' E 005°56'0 0.0
2017-Jun-23 11:00N 43°07' E 005°56'0 0.0
2017-Jun-23 10:15N 43°07' E 005°56'0 0.0
2017-Jun-23 09:51N 43°07' E 005°56'0 0.0
2017-Jun-23 09:06N 43°07' E 005°56'0 0.0
2017-Jun-23 09:00N 43°07' E 005°56'0 0.0
2017-Jun-23 08:30N 43°07' E 005°56'0 0.0
2017-Jun-23 07:51N 43°07' E 005°56'0 0.0
2017-Jun-23 07:24N 43°07' E 005°56'0 0.0
2017-Jun-23 06:54N 43°07' E 005°56'0 0.1
2017-Jun-23 06:30N 43°07' E 005°56'1 1.1
2017-Jun-23 06:01N 43°06' E 005°55'2 4.4
2017-Jun-23 05:31N 43°05' E 005°58'22 7.8
2017-Jun-23 02:41N 42°47' E 006°15'1 7.4
2017-Jun-23 02:29N 42°46' E 006°15'4 6.0
2017-Jun-23 01:53N 42°43' E 006°19'33 7.1
2017-Jun-22 21:16N 43°02' E 006°55'3 7.9
2017-Jun-22 20:52N 43°04' E 006°58'3 7.6
2017-Jun-22 20:30N 43°06' E 007°00'4 7.4
2017-Jun-22 19:58N 43°09' E 007°04'3 7.3
2017-Jun-22 19:30N 43°12' E 007°06'4 7.2
2017-Jun-22 19:00N 43°15' E 007°10'3 7.0
2017-Jun-22 18:30N 43°17' E 007°13'4 7.1
2017-Jun-22 18:00N 43°20' E 007°16'4 7.5
2017-Jun-22 17:30N 43°24' E 007°17'4 7.6
2017-Jun-22 17:00N 43°28' E 007°17'4 7.7
2017-Jun-22 16:26N 43°32' E 007°18'4 7.9
2017-Jun-22 15:59N 43°36' E 007°18'4 7.6
2017-Jun-22 15:30N 43°39' E 007°19'2 0.2
2017-Jun-22 05:01N 43°41' E 007°19'0 5.2
2017-Jun-22 04:59N 43°41' E 007°19'4 7.3
2017-Jun-22 04:29N 43°39' E 007°23'510.3
2017-Jun-22 04:00N 43°39' E 007°30'611.9
2017-Jun-22 03:28N 43°38' E 007°39'612.1
2017-Jun-22 03:00N 43°38' E 007°47'3211.9
2017-Jun-22 00:19N 43°36' E 008°31'412.1
2017-Jun-22 00:00N 43°36' E 008°36'612.1
2017-Jun-21 23:30N 43°36' E 008°44'612.1
2017-Jun-21 23:00N 43°35' E 008°53'612.0
2017-Jun-21 22:30N 43°35' E 009°01'612.1
2017-Jun-21 22:00N 43°34' E 009°09'612.1
2017-Jun-21 21:30N 43°34' E 009°17'612.1
2017-Jun-21 21:00N 43°34' E 009°26'612.0
2017-Jun-21 20:30N 43°33' E 009°34'612.0
2017-Jun-21 20:00N 43°33' E 009°42'713.1
2017-Jun-21 19:31N 43°32' E 009°51'714.0
2017-Jun-21 19:00N 43°31' E 010°01'713.5
2017-Jun-21 18:31N 43°31' E 010°10'611.3
2017-Jun-21 18:00N 43°33' E 010°17'1 1.2
2017-Jun-21 17:27N 43°33' E 010°18'0 0.0
2017-Jun-21 16:57N 43°33' E 010°18'0 0.0
2017-Jun-21 16:27N 43°33' E 010°18'0 0.0
2017-Jun-21 15:57N 43°33' E 010°18'0 0.0
2017-Jun-21 15:27N 43°33' E 010°18'0 0.0
2017-Jun-21 14:57N 43°33' E 010°18'0 0.0
2017-Jun-21 13:57N 43°33' E 010°18'0 0.0
2017-Jun-21 13:27N 43°33' E 010°18'0 0.0
2017-Jun-21 12:57N 43°33' E 010°18'0 0.0
2017-Jun-21 12:27N 43°33' E 010°18'0 0.0
2017-Jun-21 11:57N 43°33' E 010°18'0 0.0
2017-Jun-21 11:27N 43°33' E 010°18'0 0.0
2017-Jun-21 10:57N 43°33' E 010°18'0 0.0
2017-Jun-21 10:27N 43°33' E 010°18'0 0.0
2017-Jun-21 09:57N 43°33' E 010°18'0 0.0
2017-Jun-21 09:27N 43°33' E 010°18'0 0.0
2017-Jun-21 08:57N 43°33' E 010°18'0 0.0
2017-Jun-21 08:27N 43°33' E 010°18'0 0.0
2017-Jun-21 07:57N 43°33' E 010°18'0 0.0
2017-Jun-21 07:27N 43°33' E 010°18'0 0.0
2017-Jun-21 06:57N 43°33' E 010°18'0 0.0
2017-Jun-21 06:27N 43°33' E 010°18'0 0.0
2017-Jun-21 05:57N 43°33' E 010°18'0 0.2
2017-Jun-21 05:30N 43°33' E 010°18'2 3.5
2017-Jun-21 05:00N 43°32' E 010°16'611.6
2017-Jun-21 04:30N 43°27' E 010°12'511.0
2017-Jun-21 04:01N 43°21' E 010°11'611.6
2017-Jun-21 03:31N 43°16' E 010°09'611.3
2017-Jun-21 03:01N 43°10' E 010°08'611.0
2017-Jun-21 02:30N 43°05' E 010°06'611.8
2017-Jun-21 02:01N 42°59' E 010°04'713.7
2017-Jun-21 01:31N 42°52' E 010°02'713.6
2017-Jun-21 00:59N 42°45' E 010°01'613.0
2017-Jun-21 00:30N 42°40' E 010°06'1013.5
2017-Jun-20 23:47N 42°33' E 010°15'513.7
2017-Jun-20 23:25N 42°29' E 010°20'613.7
2017-Jun-20 23:01N 42°25' E 010°25'713.9
2017-Jun-20 22:30N 42°20' E 010°31'714.2
2017-Jun-20 22:00N 42°15' E 010°38'914.3
2017-Jun-20 21:23N 42°08' E 010°45'714.0
2017-Jun-20 20:51N 42°04' E 010°53'514.0
2017-Jun-20 20:29N 42°01' E 010°60'613.4
2017-Jun-20 20:00N 42°01' E 011°08'713.9
2017-Jun-20 19:30N 42°02' E 011°17'128 5.5
2017-Jun-19 19:59N 40°41' E 013°30'1115.6
2017-Jun-19 19:17N 40°38' E 013°44'415.4
2017-Jun-19 19:00N 40°38' E 013°50'1015.4
2017-Jun-19 18:22N 40°38' E 014°02'316 8.9
2017-Jun-18 06:44N 41°20' E 007°07'13815.7
2017-Jun-17 21:59N 41°18' E 004°04'815.8
2017-Jun-17 21:30N 41°18' E 003°54'815.9
2017-Jun-17 21:00N 41°17' E 003°43'815.8
2017-Jun-17 20:30N 41°17' E 003°33'815.7
2017-Jun-17 20:00N 41°17' E 003°22'816.0
2017-Jun-17 19:30N 41°17' E 003°12'816.4
2017-Jun-17 19:00N 41°17' E 003°01'816.7
2017-Jun-17 18:30N 41°17' E 002°50'816.6
2017-Jun-17 18:00N 41°16' E 002°39'816.1
2017-Jun-17 17:30N 41°16' E 002°28'815.9
2017-Jun-17 17:00N 41°15' E 002°17'612.6
2017-Jun-17 16:30N 41°19' E 002°10'3 5.4
2017-Jun-17 15:57N 41°22' E 002°11'0 0.0
2017-Jun-17 15:30N 41°22' E 002°11'0 0.0
2017-Jun-17 14:57N 41°22' E 002°11'0 0.0
2017-Jun-17 13:27N 41°22' E 002°11'0 0.0
2017-Jun-17 12:57N 41°22' E 002°11'0 0.0
2017-Jun-17 12:30N 41°22' E 002°11'0 0.0
2017-Jun-17 12:00N 41°22' E 002°11'0 0.0
2017-Jun-17 11:27N 41°22' E 002°11'0 0.0
2017-Jun-17 10:57N 41°22' E 002°11'0 0.0
2017-Jun-17 10:27N 41°22' E 002°11'0 0.0
2017-Jun-17 09:57N 41°22' E 002°11'0 0.0
2017-Jun-17 09:27N 41°22' E 002°11'0 0.0
2017-Jun-17 08:54N 41°22' E 002°11'0 0.0
2017-Jun-17 08:27N 41°22' E 002°11'0 0.0
2017-Jun-17 07:51N 41°22' E 002°11'0 0.0
2017-Jun-17 07:27N 41°22' E 002°11'0 0.0
2017-Jun-17 06:59N 41°22' E 002°11'0 0.3
2017-Jun-17 06:30N 41°21' E 002°11'4 6.6
2017-Jun-17 05:58N 41°18' E 002°11'5 9.9
2017-Jun-17 05:30N 41°16' E 002°16'611.9
2017-Jun-17 05:00N 41°16' E 002°24'714.0
2017-Jun-17 04:30N 41°16' E 002°33'713.6
2017-Jun-17 03:59N 41°19' E 002°42'714.3
2017-Jun-17 03:30N 41°23' E 002°50'714.1
2017-Jun-17 03:00N 41°27' E 002°57'713.6
2017-Jun-17 02:30N 41°31' E 003°05'713.8
2017-Jun-17 02:00N 41°35' E 003°12'714.1
2017-Jun-17 01:30N 41°39' E 003°20'813.9
2017-Jun-17 00:56N 41°43' E 003°29'916.3
2017-Jun-17 00:23N 41°49' E 003°39'716.6
2017-Jun-16 23:59N 41°52' E 003°46'1116.6
2017-Jun-16 23:20N 41°59' E 003°58'916.5
2017-Jun-16 22:47N 42°04' E 004°08'716.0
2017-Jun-16 22:21N 42°08' E 004°15'816.0
2017-Jun-16 21:51N 42°12' E 004°24'715.9
2017-Jun-16 21:25N 42°16' E 004°32'916.0
2017-Jun-16 20:50N 42°22' E 004°42'  
Track history (hours):
 
Tides and Currents Weather Stations Pressure Air Temp Water Temp Dewpoint Dewpoint Depression Visibility Wind Speed Wind Dir Waves Ship Positions

Sovereign

Last reported at 2017-Jun-26 19:01 UTC. Time now 2017-Jun-26 19:07 UTC.
Position N 40°37' E 013°56'.

Length 269 m; draft 7.8 m.

Type: Passenger vessel. MMSI: 249539000.

Date/timePositionNaut miles runAvg speedWind from/ knotsBaromVisibWave heightAir tempDewpointWater temp
2017-Jun-26 19:01N 40°37' E 013°56'815.3
2017-Jun-26 18:31N 40°40' E 014°05'713.6
2017-Jun-26 18:01N 40°45' E 014°11'612.4
2017-Jun-26 17:30N 40°49' E 014°17'1 2.7
2017-Jun-26 16:58N 40°50' E 014°15'0 0.0
2017-Jun-26 16:28N 40°50' E 014°15'0 0.0
2017-Jun-26 15:58N 40°50' E 014°15'0 0.0
2017-Jun-26 15:28N 40°50' E 014°15'0 0.0
2017-Jun-26 14:58N 40°50' E 014°15'0 0.0
2017-Jun-26 14:28N 40°50' E 014°15'0 0.0
2017-Jun-26 13:28N 40°50' E 014°15'0 0.0
2017-Jun-26 12:52N 40°50' E 014°15'0 0.0
2017-Jun-26 12:28N 40°50' E 014°15'0 0.0
2017-Jun-26 11:58N 40°50' E 014°15'0 0.0
2017-Jun-26 11:28N 40°50' E 014°15'0 0.0
2017-Jun-26 10:58N 40°50' E 014°15'0 0.0
2017-Jun-26 10:28N 40°50' E 014°15'0 0.0
2017-Jun-26 09:58N 40°50' E 014°15'0 0.0
2017-Jun-26 09:28N 40°50' E 014°15'0 0.0
2017-Jun-26 08:52N 40°50' E 014°15'0 0.0
2017-Jun-26 08:28N 40°50' E 014°15'0 0.0
2017-Jun-26 07:52N 40°50' E 014°15'0 0.0
2017-Jun-26 07:25N 40°50' E 014°15'0 0.0
2017-Jun-26 06:58N 40°50' E 014°15'0 0.7
2017-Jun-26 06:30N 40°50' E 014°16'2 3.4
2017-Jun-26 06:00N 40°49' E 014°17'712.5
2017-Jun-26 05:28N 40°44' E 014°10'613.0
2017-Jun-26 05:00N 40°40' E 014°05'714.1
2017-Jun-26 04:30N 40°36' E 013°57'714.1
2017-Jun-26 04:00N 40°32' E 013°50'713.3
2017-Jun-26 03:30N 40°30' E 013°41'714.1
2017-Jun-26 03:00N 40°31' E 013°32'714.1
2017-Jun-26 02:30N 40°33' E 013°23'714.0
2017-Jun-26 02:00N 40°34' E 013°14'713.9
2017-Jun-26 01:30N 40°36' E 013°05'713.8
2017-Jun-26 00:58N 40°38' E 012°56'713.9
2017-Jun-26 00:29N 40°39' E 012°47'1213.7
2017-Jun-25 23:36N 40°42' E 012°32'113.8
2017-Jun-25 23:30N 40°43' E 012°30'1013.6
2017-Jun-25 22:45N 40°45' E 012°17'313.5
2017-Jun-25 22:30N 40°46' E 012°13'713.4
2017-Jun-25 22:00N 40°48' E 012°04'713.5
2017-Jun-25 21:31N 40°50' E 011°56'1413.6
2017-Jun-25 20:28N 40°54' E 011°38'713.8
2017-Jun-25 20:00N 40°56' E 011°29'1113.9
2017-Jun-25 19:13N 40°59' E 011°16'1713.9
2017-Jun-25 17:58N 41°03' E 010°53'613.7
2017-Jun-25 17:30N 41°05' E 010°45'713.8
2017-Jun-25 17:00N 41°06' E 010°36'2914.2
2017-Jun-25 14:57N 41°14' E 009°59'1114.8
2017-Jun-25 14:13N 41°17' E 009°45'11315.4
2017-Jun-25 06:51N 41°20' E 007°14'14316.5
2017-Jun-24 22:12N 41°18' E 004°04'516.2
2017-Jun-24 21:54N 41°18' E 003°58'616.3
2017-Jun-24 21:30N 41°17' E 003°49'816.7
2017-Jun-24 21:00N 41°17' E 003°38'816.3
2017-Jun-24 20:30N 41°17' E 003°27'816.2
2017-Jun-24 20:00N 41°17' E 003°16'816.3
2017-Jun-24 19:30N 41°17' E 003°05'816.2
2017-Jun-24 19:00N 41°17' E 002°55'816.2
2017-Jun-24 18:30N 41°17' E 002°44'816.3
2017-Jun-24 18:01N 41°16' E 002°33'816.8
2017-Jun-24 17:30N 41°16' E 002°22'816.4
2017-Jun-24 17:00N 41°17' E 002°11'5 9.2
2017-Jun-24 16:29N 41°21' E 002°10'0 0.4
2017-Jun-24 15:46N 41°22' E 002°11'0 0.0
2017-Jun-24 15:13N 41°22' E 002°11'0 0.0
2017-Jun-24 14:52N 41°22' E 002°11'0 0.0
2017-Jun-24 13:52N 41°22' E 002°11'0 0.0
2017-Jun-24 13:28N 41°22' E 002°11'0 0.0
2017-Jun-24 12:58N 41°22' E 002°11'0 0.0
2017-Jun-24 12:28N 41°22' E 002°11'0 0.0
2017-Jun-24 11:58N 41°22' E 002°11'0 0.0
2017-Jun-24 11:28N 41°22' E 002°11'0 0.0
2017-Jun-24 10:58N 41°22' E 002°11'0 0.0
2017-Jun-24 10:28N 41°22' E 002°11'0 0.0
2017-Jun-24 09:58N 41°22' E 002°11'0 0.0
2017-Jun-24 09:28N 41°22' E 002°11'0 0.0
2017-Jun-24 08:58N 41°22' E 002°11'0 0.0
2017-Jun-24 08:22N 41°22' E 002°11'0 0.0
2017-Jun-24 07:43N 41°22' E 002°11'0 0.0
2017-Jun-24 07:25N 41°22' E 002°11'0 0.0
2017-Jun-24 06:58N 41°22' E 002°11'0 0.1
2017-Jun-24 06:30N 41°22' E 002°11'5 7.4
2017-Jun-24 05:50N 41°17' E 002°11'412.7
2017-Jun-24 05:30N 41°16' E 002°17'612.7
2017-Jun-24 05:00N 41°16' E 002°25'714.2
2017-Jun-24 04:30N 41°16' E 002°35'713.7
2017-Jun-24 04:00N 41°19' E 002°43'713.8
2017-Jun-24 03:30N 41°23' E 002°51'713.5
2017-Jun-24 03:00N 41°27' E 002°58'713.7
2017-Jun-24 02:30N 41°31' E 003°05'714.0
2017-Jun-24 02:00N 41°35' E 003°13'713.9
2017-Jun-24 01:30N 41°39' E 003°21'714.0
2017-Jun-24 01:00N 41°43' E 003°28'713.8
2017-Jun-24 00:30N 41°47' E 003°36'815.2
2017-Jun-24 00:00N 41°51' E 003°44'916.3
2017-Jun-23 23:28N 41°57' E 003°54'716.1
2017-Jun-23 23:00N 42°01' E 004°02'815.9
2017-Jun-23 22:30N 42°05' E 004°11'815.6
2017-Jun-23 22:00N 42°10' E 004°19'815.4
2017-Jun-23 21:30N 42°14' E 004°28'815.1
2017-Jun-23 20:59N 42°19' E 004°37'3415.3
2017-Jun-23 18:48N 42°38' E 005°13'4214.8
2017-Jun-23 15:59N 43°04' E 005°58'3 6.4
2017-Jun-23 15:30N 43°07' E 005°56'0 0.2
2017-Jun-23 15:00N 43°07' E 005°56'0 0.0
2017-Jun-23 14:00N 43°07' E 005°56'0 0.0
2017-Jun-23 13:30N 43°07' E 005°56'0 0.0
2017-Jun-23 13:00N 43°07' E 005°56'0 0.0
2017-Jun-23 12:30N 43°07' E 005°56'0 0.0
2017-Jun-23 12:00N 43°07' E 005°56'0 0.0
2017-Jun-23 11:30N 43°07' E 005°56'0 0.0
2017-Jun-23 11:00N 43°07' E 005°56'0 0.0
2017-Jun-23 10:15N 43°07' E 005°56'0 0.0
2017-Jun-23 09:51N 43°07' E 005°56'0 0.0
2017-Jun-23 09:06N 43°07' E 005°56'0 0.0
2017-Jun-23 09:00N 43°07' E 005°56'0 0.0
2017-Jun-23 08:30N 43°07' E 005°56'0 0.0
2017-Jun-23 07:51N 43°07' E 005°56'0 0.0
2017-Jun-23 07:24N 43°07' E 005°56'0 0.0
2017-Jun-23 06:54N 43°07' E 005°56'0 0.1
2017-Jun-23 06:30N 43°07' E 005°56'1 1.1
2017-Jun-23 06:01N 43°06' E 005°55'2 4.4
2017-Jun-23 05:31N 43°05' E 005°58'22 7.8
2017-Jun-23 02:41N 42°47' E 006°15'1 7.4
2017-Jun-23 02:29N 42°46' E 006°15'4 6.0
2017-Jun-23 01:53N 42°43' E 006°19'33 7.1
2017-Jun-22 21:16N 43°02' E 006°55'3 7.9
2017-Jun-22 20:52N 43°04' E 006°58'3 7.6
2017-Jun-22 20:30N 43°06' E 007°00'4 7.4
2017-Jun-22 19:58N 43°09' E 007°04'3 7.3
2017-Jun-22 19:30N 43°12' E 007°06'4 7.2
2017-Jun-22 19:00N 43°15' E 007°10'3 7.0
2017-Jun-22 18:30N 43°17' E 007°13'4 7.1
2017-Jun-22 18:00N 43°20' E 007°16'4 7.5
2017-Jun-22 17:30N 43°24' E 007°17'4 7.6
2017-Jun-22 17:00N 43°28' E 007°17'4 7.7
2017-Jun-22 16:26N 43°32' E 007°18'4 7.9
2017-Jun-22 15:59N 43°36' E 007°18'4 7.6
2017-Jun-22 15:30N 43°39' E 007°19'2 0.2
2017-Jun-22 05:01N 43°41' E 007°19'0 5.2
2017-Jun-22 04:59N 43°41' E 007°19'4 7.3
2017-Jun-22 04:29N 43°39' E 007°23'510.3
2017-Jun-22 04:00N 43°39' E 007°30'611.9
2017-Jun-22 03:28N 43°38' E 007°39'612.1
2017-Jun-22 03:00N 43°38' E 007°47'3211.9
2017-Jun-22 00:19N 43°36' E 008°31'412.1
2017-Jun-22 00:00N 43°36' E 008°36'612.1
2017-Jun-21 23:30N 43°36' E 008°44'612.1
2017-Jun-21 23:00N 43°35' E 008°53'612.0
2017-Jun-21 22:30N 43°35' E 009°01'612.1
2017-Jun-21 22:00N 43°34' E 009°09'612.1
2017-Jun-21 21:30N 43°34' E 009°17'612.1
2017-Jun-21 21:00N 43°34' E 009°26'612.0
2017-Jun-21 20:30N 43°33' E 009°34'612.0
2017-Jun-21 20:00N 43°33' E 009°42'713.1
2017-Jun-21 19:31N 43°32' E 009°51'714.0
2017-Jun-21 19:00N 43°31' E 010°01'713.5
2017-Jun-21 18:31N 43°31' E 010°10'611.3
2017-Jun-21 18:00N 43°33' E 010°17'1 1.2
2017-Jun-21 17:27N 43°33' E 010°18'0 0.0
2017-Jun-21 16:57N 43°33' E 010°18'0 0.0
2017-Jun-21 16:27N 43°33' E 010°18'0 0.0
2017-Jun-21 15:57N 43°33' E 010°18'0 0.0
2017-Jun-21 15:27N 43°33' E 010°18'0 0.0
2017-Jun-21 14:57N 43°33' E 010°18'0 0.0
2017-Jun-21 13:57N 43°33' E 010°18'0 0.0
2017-Jun-21 13:27N 43°33' E 010°18'0 0.0
2017-Jun-21 12:57N 43°33' E 010°18'0 0.0
2017-Jun-21 12:27N 43°33' E 010°18'0 0.0
2017-Jun-21 11:57N 43°33' E 010°18'0 0.0
2017-Jun-21 11:27N 43°33' E 010°18'0 0.0
2017-Jun-21 10:57N 43°33' E 010°18'0 0.0
2017-Jun-21 10:27N 43°33' E 010°18'0 0.0
2017-Jun-21 09:57N 43°33' E 010°18'0 0.0
2017-Jun-21 09:27N 43°33' E 010°18'0 0.0
2017-Jun-21 08:57N 43°33' E 010°18'0 0.0
2017-Jun-21 08:27N 43°33' E 010°18'0 0.0
2017-Jun-21 07:57N 43°33' E 010°18'0 0.0
2017-Jun-21 07:27N 43°33' E 010°18'0 0.0
2017-Jun-21 06:57N 43°33' E 010°18'0 0.0
2017-Jun-21 06:27N 43°33' E 010°18'0 0.0
2017-Jun-21 05:57N 43°33' E 010°18'0 0.2
2017-Jun-21 05:30N 43°33' E 010°18'2 3.5
2017-Jun-21 05:00N 43°32' E 010°16'611.6
2017-Jun-21 04:30N 43°27' E 010°12'511.0
2017-Jun-21 04:01N 43°21' E 010°11'611.6
2017-Jun-21 03:31N 43°16' E 010°09'611.3
2017-Jun-21 03:01N 43°10' E 010°08'611.0
2017-Jun-21 02:30N 43°05' E 010°06'611.8
2017-Jun-21 02:01N 42°59' E 010°04'713.7
2017-Jun-21 01:31N 42°52' E 010°02'713.6
2017-Jun-21 00:59N 42°45' E 010°01'613.0
2017-Jun-21 00:30N 42°40' E 010°06'1013.5
2017-Jun-20 23:47N 42°33' E 010°15'513.7
2017-Jun-20 23:25N 42°29' E 010°20'613.7
2017-Jun-20 23:01N 42°25' E 010°25'713.9
2017-Jun-20 22:30N 42°20' E 010°31'714.2
2017-Jun-20 22:00N 42°15' E 010°38'914.3
2017-Jun-20 21:23N 42°08' E 010°45'714.0
2017-Jun-20 20:51N 42°04' E 010°53'514.0
2017-Jun-20 20:29N 42°01' E 010°60'613.4
2017-Jun-20 20:00N 42°01' E 011°08'713.9
2017-Jun-20 19:30N 42°02' E 011°17'128 5.5
2017-Jun-19 19:59N 40°41' E 013°30'1115.6
2017-Jun-19 19:17N 40°38' E 013°44'415.4
2017-Jun-19 19:00N 40°38' E 013°50'1015.4
2017-Jun-19 18:22N 40°38' E 014°02'316 8.9
2017-Jun-18 06:44N 41°20' E 007°07'13815.7
2017-Jun-17 21:59N 41°18' E 004°04'815.8
2017-Jun-17 21:30N 41°18' E 003°54'815.9
2017-Jun-17 21:00N 41°17' E 003°43'815.8
2017-Jun-17 20:30N 41°17' E 003°33'815.7
2017-Jun-17 20:00N 41°17' E 003°22'816.0
2017-Jun-17 19:30N 41°17' E 003°12'816.4
2017-Jun-17 19:00N 41°17' E 003°01'816.7
2017-Jun-17 18:30N 41°17' E 002°50'816.6
2017-Jun-17 18:00N 41°16' E 002°39'816.1
2017-Jun-17 17:30N 41°16' E 002°28'815.9
2017-Jun-17 17:00N 41°15' E 002°17'612.6
2017-Jun-17 16:30N 41°19' E 002°10'3 5.4
2017-Jun-17 15:57N 41°22' E 002°11'0 0.0
2017-Jun-17 15:30N 41°22' E 002°11'0 0.0
2017-Jun-17 14:57N 41°22' E 002°11'0 0.0
2017-Jun-17 13:27N 41°22' E 002°11'0 0.0
2017-Jun-17 12:57N 41°22' E 002°11'0 0.0
2017-Jun-17 12:30N 41°22' E 002°11'0 0.0
2017-Jun-17 12:00N 41°22' E 002°11'0 0.0
2017-Jun-17 11:27N 41°22' E 002°11'0 0.0
2017-Jun-17 10:57N 41°22' E 002°11'0 0.0
2017-Jun-17 10:27N 41°22' E 002°11'0 0.0
2017-Jun-17 09:57N 41°22' E 002°11'0 0.0
2017-Jun-17 09:27N 41°22' E 002°11'0 0.0
2017-Jun-17 08:54N 41°22' E 002°11'0 0.0
2017-Jun-17 08:27N 41°22' E 002°11'0 0.0
2017-Jun-17 07:51N 41°22' E 002°11'0 0.0
2017-Jun-17 07:27N 41°22' E 002°11'0 0.0
2017-Jun-17 06:59N 41°22' E 002°11'0 0.3
2017-Jun-17 06:30N 41°21' E 002°11'4 6.6
2017-Jun-17 05:58N 41°18' E 002°11'5 9.9
2017-Jun-17 05:30N 41°16' E 002°16'611.9
2017-Jun-17 05:00N 41°16' E 002°24'714.0
2017-Jun-17 04:30N 41°16' E 002°33'713.6
2017-Jun-17 03:59N 41°19' E 002°42'714.3
2017-Jun-17 03:30N 41°23' E 002°50'714.1
2017-Jun-17 03:00N 41°27' E 002°57'713.6
2017-Jun-17 02:30N 41°31' E 003°05'713.8
2017-Jun-17 02:00N 41°35' E 003°12'714.1
2017-Jun-17 01:30N 41°39' E 003°20'813.9
2017-Jun-17 00:56N 41°43' E 003°29'916.3
2017-Jun-17 00:23N 41°49' E 003°39'716.6
2017-Jun-16 23:59N 41°52' E 003°46'1116.6
2017-Jun-16 23:20N 41°59' E 003°58'916.5
2017-Jun-16 22:47N 42°04' E 004°08'716.0
2017-Jun-16 22:21N 42°08' E 004°15'816.0
2017-Jun-16 21:51N 42°12' E 004°24'715.9
2017-Jun-16 21:25N 42°16' E 004°32'916.0
2017-Jun-16 20:50N 42°22' E 004°42'  

Dump ship's entire track history